Time;durP1;ratioP1;P1;durP2;ratioP2;P2;SDS_P1;SDS_P2;PMS_P1;PMS_P2;Temp;Humidity;BMP_temperature;BMP_pressure;BME280_temperature;BME280_humidity;BME280_pressure;Samples;Min_cycle;Max_cycle;Signal;HPM_P1;HPM_P2
2022/03/26 00:02:01;;;;;;;;;10.25;9.25;;;;;18.32;42.10;103283.50;4912912;29;8885;-72
2022/03/26 00:04:28;;;;;;;;;11.00;11.00;;;;;18.32;41.92;103278.22;4914152;29;8842;-72
2022/03/26 00:06:53;;;;;;;;;11.25;11.00;;;;;18.34;41.82;103286.19;4912977;29;8832;-72
2022/03/26 00:09:18;;;;;;;;;8.50;8.00;;;;;18.34;42.00;103283.53;4913339;29;9947;-72
2022/03/26 00:11:43;;;;;;;;;11.00;11.00;;;;;18.30;41.84;103279.91;4914282;29;8850;-72
2022/03/26 00:14:11;;;;;;;;;10.50;10.00;;;;;18.31;41.99;103281.72;4915569;29;8796;-72
2022/03/26 00:16:36;;;;;;;;;8.50;8.50;;;;;18.31;41.62;103278.16;4913974;29;8943;-72
2022/03/26 00:19:02;;;;;;;;;11.00;11.00;;;;;18.31;41.93;103281.72;4913387;29;9758;-72
2022/03/26 00:21:27;;;;;;;;;10.00;9.00;;;;;18.31;41.96;103288.75;4913093;29;8807;-73
2022/03/26 00:23:52;;;;;;;;;13.75;11.00;;;;;18.31;42.17;103292.28;4913791;29;8902;-73
2022/03/26 00:26:18;;;;;;;;;9.25;9.00;;;;;18.30;41.91;103289.59;4913921;29;8939;-73
2022/03/26 00:28:43;;;;;;;;;11.50;11.50;;;;;18.31;41.89;103283.47;4917597;29;8846;-72
2022/03/26 00:31:08;;;;;;;;;11.00;10.25;;;;;18.28;41.85;103283.38;4915772;29;8838;-73
2022/03/26 00:33:33;;;;;;;;;15.00;13.50;;;;;18.29;41.94;103287.81;4914531;29;8832;-73
2022/03/26 00:35:59;;;;;;;;;10.75;10.75;;;;;18.26;43.13;103288.59;4913215;29;8781;-72
2022/03/26 00:38:24;;;;;;;;;14.75;11.25;;;;;18.28;41.97;103289.56;4913828;29;8842;-72
2022/03/26 00:40:50;;;;;;;;;10.75;10.25;;;;;18.27;42.23;103289.50;4913897;29;8809;-72
2022/03/26 00:43:15;;;;;;;;;10.25;9.00;;;;;18.27;42.40;103293.06;4914791;29;8859;-72
2022/03/26 00:45:42;;;;;;;;;11.00;11.00;;;;;18.27;42.03;103293.06;4917225;29;8840;-72
2022/03/26 00:48:07;;;;;;;;;15.75;11.25;;;;;18.27;42.17;103294.78;4914513;29;8927;-72
2022/03/26 00:50:34;;;;;;;;;10.75;9.00;;;;;18.25;42.05;103286.84;4912894;29;10020;-72
2022/03/26 00:52:59;;;;;;;;;10.00;10.00;;;;;18.23;41.90;103293.81;4913322;29;8804;-71
2022/03/26 00:55:27;;;;;;;;;11.75;11.75;;;;;18.24;42.19;103292.06;4913331;29;9951;-71
2022/03/26 00:57:52;;;;;;;;;11.00;11.00;;;;;18.22;41.86;103288.50;4912631;29;8796;-72
2022/03/26 01:00:18;;;;;;;;;9.00;9.00;;;;;18.22;42.04;103286.72;4913480;29;9843;-72
2022/03/26 01:02:43;;;;;;;;;10.00;10.00;;;;;18.22;42.12;103283.22;4913454;29;8951;-72
2022/03/26 01:05:10;;;;;;;;;13.25;10.75;;;;;18.23;42.07;103295.56;4912364;29;8880;-72
2022/03/26 01:07:36;;;;;;;;;10.00;8.00;;;;;18.21;42.00;103289.34;4913043;29;8823;-71
2022/03/26 01:10:02;;;;;;;;;10.50;10.00;;;;;18.22;42.08;103293.78;4914177;29;9964;-71
2022/03/26 01:12:27;;;;;;;;;10.00;10.00;;;;;18.20;41.56;103295.47;4919793;29;8820;-73
2022/03/26 01:14:53;;;;;;;;;11.00;11.00;;;;;18.21;41.96;103297.28;4916824;29;8912;-72
2022/03/26 01:17:19;;;;;;;;;11.75;10.25;;;;;18.20;41.82;103285.78;4916015;29;8892;-72
2022/03/26 01:19:45;;;;;;;;;10.00;10.00;;;;;18.20;41.73;103288.44;4916851;29;8800;-71
2022/03/26 01:22:10;;;;;;;;;9.50;8.75;;;;;18.20;41.72;103290.19;4916519;29;9907;-72
2022/03/26 01:24:36;;;;;;;;;12.00;11.00;;;;;18.19;41.70;103283.09;4915926;29;11999;-72
2022/03/26 01:27:01;;;;;;;;;9.00;8.75;;;;;18.19;41.87;103291.94;4916113;29;8828;-72
2022/03/26 01:29:27;;;;;;;;;8.00;8.00;;;;;18.18;41.76;103286.63;4916539;29;8832;-72
2022/03/26 01:31:53;;;;;;;;;12.00;10.75;;;;;18.16;41.67;103286.56;4915601;29;8812;-72
2022/03/26 01:34:19;;;;;;;;;14.00;14.00;;;;;18.16;41.84;103283.91;4916637;29;8792;-72
2022/03/26 01:36:44;;;;;;;;;13.25;9.75;;;;;18.15;41.71;103284.75;4916435;29;9914;-73
2022/03/26 01:39:10;;;;;;;;;11.75;10.25;;;;;18.17;41.54;103288.34;4915573;29;8876;-72
2022/03/26 01:41:37;;;;;;;;;9.25;8.75;;;;;18.16;41.82;103290.94;4916613;29;8804;-71
2022/03/26 01:44:04;;;;;;;;;10.25;9.25;;;;;18.17;41.55;103284.81;4916121;29;10592;-74
2022/03/26 01:46:49;;;;;;;;;9.50;9.50;;;;;18.14;41.75;103282.09;4916114;29;10760;-72
2022/03/26 01:49:14;;;;;;;;;10.25;10.00;;;;;18.14;41.71;103282.09;4916132;29;9973;-73
2022/03/26 01:51:40;;;;;;;;;13.00;10.25;;;;;18.14;41.54;103285.63;4916306;29;9830;-72
2022/03/26 01:54:05;;;;;;;;;8.50;8.50;;;;;18.14;41.78;103279.44;4914983;29;8827;-71
2022/03/26 01:56:31;;;;;;;;;10.00;9.50;;;;;18.14;41.51;103275.06;4915775;29;8840;-71
2022/03/26 01:58:57;;;;;;;;;9.50;9.00;;;;;18.13;41.69;103272.34;4915938;29;8967;-72
2022/03/26 02:01:22;;;;;;;;;11.00;9.00;;;;;18.13;41.76;103269.72;4915367;29;8804;-72
2022/03/26 02:03:47;;;;;;;;;9.75;9.00;;;;;18.12;41.79;103267.91;4915902;29;8800;-72
2022/03/26 02:06:16;;;;;;;;;10.50;9.50;;;;;18.13;41.41;103272.34;4915505;29;8863;-72
2022/03/26 02:08:44;;;;;;;;;9.50;9.00;;;;;18.12;41.44;103266.16;4915369;29;8888;-72
2022/03/26 02:11:10;;;;;;;;;10.00;10.00;;;;;18.10;41.40;103265.25;4915556;29;10438;-72
2022/03/26 02:13:55;;;;;;;;;12.75;10.25;;;;;18.10;41.39;103262.59;4918440;29;10057;-72
2022/03/26 02:16:22;;;;;;;;;12.00;12.00;;;;;18.09;41.60;103266.06;4915928;29;8911;-72
2022/03/26 02:18:48;;;;;;;;;10.50;10.50;;;;;18.12;41.52;103267.91;4915565;29;9845;-72
2022/03/26 02:21:13;;;;;;;;;9.50;9.50;;;;;18.09;41.43;103267.81;4914366;29;9700;-72
2022/03/26 02:23:41;;;;;;;;;8.50;8.00;;;;;18.11;41.56;103268.78;4915396;29;10671;-71
2022/03/26 02:26:07;;;;;;;;;10.00;9.00;;;;;18.08;41.55;103264.28;4915505;29;8828;-71
2022/03/26 02:28:34;;;;;;;;;12.50;9.75;;;;;18.09;41.25;103265.19;4914963;29;9696;-71
2022/03/26 02:30:59;;;;;;;;;13.50;12.00;;;;;18.07;41.48;103264.25;4914925;29;8978;-72
2022/03/26 02:33:24;;;;;;;;;10.50;9.50;;;;;18.07;41.56;103261.63;4915493;29;9764;-72
2022/03/26 02:35:50;;;;;;;;;13.75;12.50;;;;;18.06;41.43;103262.44;4914597;29;8808;-71
2022/03/26 02:38:15;;;;;;;;;11.00;11.00;;;;;18.06;41.63;103259.81;4914966;29;8808;-72
2022/03/26 02:40:40;;;;;;;;;8.00;8.00;;;;;18.03;41.50;103263.28;4915393;29;8938;-72
2022/03/26 02:43:06;;;;;;;;;11.50;11.00;;;;;18.05;41.27;103260.66;4914337;29;9595;-71
2022/03/26 02:45:32;;;;;;;;;10.00;10.00;;;;;18.06;41.68;103265.09;4915347;29;8824;-72
2022/03/26 02:47:57;;;;;;;;;8.25;8.25;;;;;18.05;41.56;103258.91;4914666;29;8911;-72
2022/03/26 02:50:23;;;;;;;;;11.75;11.50;;;;;18.03;41.44;103257.97;4914334;29;8827;-71
2022/03/26 02:52:50;;;;;;;;;13.00;9.00;;;;;18.07;41.35;103253.69;4915168;29;8808;-72
2022/03/26 02:55:16;;;;;;;;;10.00;10.00;;;;;18.04;41.67;103262.41;4914719;29;8820;-72
2022/03/26 02:57:42;;;;;;;;;12.25;12.25;;;;;18.03;41.40;103265.00;4914428;29;9944;-72
2022/03/26 03:00:09;;;;;;;;;10.25;9.25;;;;;18.05;41.59;103258.00;4914666;29;9741;-72
2022/03/26 03:02:34;;;;;;;;;3.00;2.25;;;;;18.02;41.43;103252.63;4914689;29;8955;-70
2022/03/26 03:05:01;;;;;;;;;15.50;15.50;;;;;18.03;41.20;103257.09;4913749;29;9930;-72
2022/03/26 03:07:30;;;;;;;;;11.50;10.50;;;;;18.03;41.63;103259.72;4914427;29;8827;-72
2022/03/26 03:09:55;;;;;;;;;9.75;9.75;;;;;18.03;41.51;103257.09;4913822;29;9971;-72
2022/03/26 03:12:20;;;;;;;;;14.50;13.25;;;;;17.99;41.32;103252.56;4918340;29;9966;-72
2022/03/26 03:14:46;;;;;;;;;14.50;13.75;;;;;18.01;41.62;103256.13;4914733;29;8816;-72
2022/03/26 03:17:11;;;;;;;;;16.50;12.75;;;;;18.00;41.30;103256.97;4913444;29;8843;-71
2022/03/26 03:19:36;;;;;;;;;10.50;9.75;;;;;18.01;41.31;103253.47;4914593;29;8819;-72
2022/03/26 03:22:03;;;;;;;;;13.50;10.50;;;;;17.99;41.65;103245.53;4914020;29;8911;-71
2022/03/26 03:24:29;;;;;;;;;11.00;11.00;;;;;17.99;41.75;103256.09;4914080;29;8903;-71
2022/03/26 03:26:55;;;;;;;;;9.50;9.50;;;;;17.98;41.31;103264.88;4914029;29;9873;-72
2022/03/26 03:29:20;;;;;;;;;13.25;13.25;;;;;17.98;41.25;103259.59;4914924;29;8846;-71
2022/03/26 03:31:48;;;;;;;;;10.25;10.25;;;;;17.98;41.63;103262.22;4913557;29;8804;-72
2022/03/26 03:34:14;;;;;;;;;15.00;13.75;;;;;17.98;41.77;103259.59;4913954;29;8840;-72
2022/03/26 03:36:39;;;;;;;;;11.00;10.00;;;;;17.99;41.53;103263.13;4914204;29;9775;-72
2022/03/26 03:39:04;;;;;;;;;11.00;11.00;;;;;17.99;41.62;103264.03;4913542;29;8819;-72
2022/03/26 03:41:30;;;;;;;;;15.00;13.25;;;;;17.98;41.47;103264.88;4914323;29;9000;-72
2022/03/26 03:43:55;;;;;;;;;14.50;12.75;;;;;17.97;41.43;103260.41;4914052;29;8800;-72
2022/03/26 03:46:20;;;;;;;;;10.00;10.00;;;;;17.95;41.32;103254.22;4913569;29;8808;-71
2022/03/26 03:48:45;;;;;;;;;11.25;11.25;;;;;17.94;41.66;103268.28;4913934;29;8950;-72
2022/03/26 03:51:11;;;;;;;;;15.75;12.00;;;;;17.94;41.69;103259.44;4913906;29;8835;-72
2022/03/26 03:53:36;;;;;;;;;11.50;11.50;;;;;17.96;43.01;103266.56;4913487;29;8803;-72
2022/03/26 03:56:02;;;;;;;;;14.00;12.75;;;;;17.96;41.69;103268.31;4913770;29;8855;-72
2022/03/26 03:58:27;;;;;;;;;11.50;10.25;;;;;17.97;41.72;103270.09;4914037;29;8797;-72
2022/03/26 04:00:52;;;;;;;;;16.75;16.25;;;;;17.96;42.19;103263.91;4912891;29;9600;-72
2022/03/26 04:03:18;;;;;;;;;10.50;9.25;;;;;17.96;41.91;103263.03;4913972;29;8911;-72
2022/03/26 04:05:43;;;;;;;;;14.00;13.00;;;;;17.94;41.69;103264.72;4913596;29;8848;-72
2022/03/26 04:08:09;;;;;;;;;14.25;13.00;;;;;17.92;41.69;103267.31;4913050;29;8804;-72
2022/03/26 04:10:34;;;;;;;;;13.25;12.75;;;;;17.93;42.10;103270.84;4914030;29;8828;-72
2022/03/26 04:12:59;;;;;;;;;16.00;15.00;;;;;17.94;42.02;103270.00;4917126;29;8923;-72
2022/03/26 04:15:25;;;;;;;;;10.00;9.75;;;;;17.93;41.65;103271.75;4913000;29;8843;-72
2022/03/26 04:17:52;;;;;;;;;13.00;12.25;;;;;17.92;41.81;103269.09;4913749;29;8904;-72
2022/03/26 04:20:17;;;;;;;;;16.50;14.50;;;;;17.92;41.78;103263.78;4912711;29;8804;-72
2022/03/26 04:22:42;;;;;;;;;12.75;12.75;;;;;17.91;41.70;103262.91;4913918;29;10036;-72
2022/03/26 04:25:08;;;;;;;;;14.00;11.75;;;;;17.91;41.51;103268.19;4913248;29;8817;-70
2022/03/26 04:27:34;;;;;;;;;18.50;18.50;;;;;17.92;41.83;103269.09;4913159;29;8800;-71
2022/03/26 04:29:59;;;;;;;;;18.75;14.25;;;;;17.93;41.64;103270.84;4913373;29;8836;-71
2022/03/26 04:32:24;;;;;;;;;16.50;15.75;;;;;17.91;41.71;103270.81;4913427;29;8812;-71
2022/03/26 04:34:50;;;;;;;;;16.50;15.50;;;;;17.91;41.81;103281.41;4912900;29;8824;-71
2022/03/26 04:37:15;;;;;;;;;17.25;16.50;;;;;17.88;41.76;103278.66;4913415;29;8800;-71
2022/03/26 04:39:41;;;;;;;;;15.50;15.00;;;;;17.88;41.59;103277.75;4913436;29;8899;-72
2022/03/26 04:42:06;;;;;;;;;15.75;13.25;;;;;17.88;41.72;103278.66;4912590;29;8919;-72
2022/03/26 04:44:38;;;;;;;;;16.00;14.75;;;;;17.89;41.77;103277.78;4915733;29;8865;-72
2022/03/26 04:47:04;;;;;;;;;15.00;14.50;;;;;17.89;41.91;103283.09;4917199;29;8911;-71
2022/03/26 04:49:29;;;;;;;;;15.75;15.50;;;;;17.88;41.71;103276.88;4916471;29;10034;-71
2022/03/26 04:51:54;;;;;;;;;16.25;13.50;;;;;17.88;41.95;103279.53;4916638;29;8877;-72
2022/03/26 04:54:20;;;;;;;;;19.00;16.75;;;;;17.86;41.93;103275.97;4917349;29;8816;-71
2022/03/26 04:56:45;;;;;;;;;21.25;18.00;;;;;17.85;41.77;103273.25;4916329;29;8796;-72
2022/03/26 04:59:13;;;;;;;;;26.25;21.50;;;;;17.85;41.64;103274.16;4916768;29;8808;-72
2022/03/26 05:01:38;;;;;;;;;19.25;16.00;;;;;17.85;41.87;103270.63;4917196;29;8799;-72
2022/03/26 05:04:04;;;;;;;;;20.00;17.50;;;;;17.86;41.85;103275.97;4915819;29;10210;-73
2022/03/26 05:06:29;;;;;;;;;15.75;15.25;;;;;17.85;41.54;103271.53;4916826;29;8886;-72
2022/03/26 05:08:54;;;;;;;;;20.25;18.00;;;;;17.85;41.57;103263.59;4916629;29;8846;-72
2022/03/26 05:11:19;;;;;;;;;17.75;16.50;;;;;17.84;41.55;103263.56;4916153;29;8804;-72
2022/03/26 05:13:45;;;;;;;;;21.00;19.50;;;;;17.83;41.93;103267.94;4920163;29;8793;-71
2022/03/26 05:16:10;;;;;;;;;16.75;15.00;;;;;17.82;41.61;103271.44;4916500;29;8854;-72
2022/03/26 05:18:36;;;;;;;;;16.75;15.75;;;;;17.83;41.80;103267.06;4916190;29;8865;-73
2022/03/26 05:21:01;;;;;;;;;24.25;22.25;;;;;17.82;41.83;103266.16;4916544;29;8828;-72
2022/03/26 05:23:27;;;;;;;;;17.75;17.75;;;;;17.83;41.71;103270.59;4915628;29;8812;-72
2022/03/26 05:25:52;;;;;;;;;20.25;19.00;;;;;17.81;41.85;103274.91;4916684;29;8812;-71
2022/03/26 05:28:18;;;;;;;;;19.25;18.00;;;;;17.83;41.58;103272.34;4916437;29;8803;-73
2022/03/26 05:30:43;;;;;;;;;21.50;21.50;;;;;17.81;41.67;103274.91;4915679;29;9604;-72
2022/03/26 05:33:08;;;;;;;;;23.25;19.25;;;;;17.81;41.62;103271.38;4916066;29;8788;-72
2022/03/26 05:35:34;;;;;;;;;17.25;16.25;;;;;17.82;41.83;103278.47;4916192;29;8989;-72
2022/03/26 05:38:00;;;;;;;;;17.50;17.50;;;;;17.82;41.66;103278.47;4915395;29;8951;-72
2022/03/26 05:40:25;;;;;;;;;19.50;19.50;;;;;17.80;41.87;103278.44;4916433;29;8839;-72
2022/03/26 05:42:50;;;;;;;;;23.00;23.00;;;;;17.79;41.64;103288.94;4916218;29;9582;-72
2022/03/26 05:45:17;;;;;;;;;18.25;18.25;;;;;17.78;41.65;103273.94;4915305;29;8812;-72
2022/03/26 05:47:47;;;;;;;;;19.50;19.00;;;;;17.80;41.77;103286.38;4916079;29;8867;-72
2022/03/26 05:50:13;;;;;;;;;17.50;16.25;;;;;17.80;41.69;103285.47;4915654;29;10301;-71
2022/03/26 05:52:39;;;;;;;;;21.00;20.00;;;;;17.80;41.75;103280.19;4915563;29;10083;-72
2022/03/26 05:55:05;;;;;;;;;20.25;18.75;;;;;17.79;41.66;103284.56;4915300;29;8808;-73
2022/03/26 05:57:30;;;;;;;;;17.75;16.00;;;;;17.76;41.71;103284.47;4915829;29;10256;-73
2022/03/26 05:59:55;;;;;;;;;18.25;18.25;;;;;17.79;41.60;103295.13;4914817;29;8819;-72
2022/03/26 06:02:21;;;;;;;;;23.00;20.50;;;;;17.79;41.71;103295.13;4915623;29;8887;-72
2022/03/26 06:04:47;;;;;;;;;18.25;17.50;;;;;17.79;41.68;103299.50;4915727;29;8808;-72
2022/03/26 06:07:12;;;;;;;;;22.25;20.50;;;;;17.78;41.54;103298.63;4914787;29;8880;-71
2022/03/26 06:09:38;;;;;;;;;23.50;19.75;;;;;17.78;41.62;103305.63;4915598;29;8832;-72
2022/03/26 06:12:04;;;;;;;;;22.50;17.75;;;;;17.77;41.98;103303.88;4918547;29;8826;-72
2022/03/26 06:14:30;;;;;;;;;19.00;17.25;;;;;17.78;41.42;103308.28;4915150;29;8871;-73
2022/03/26 06:16:55;;;;;;;;;20.25;18.50;;;;;17.76;41.41;103308.25;4915277;29;10190;-72
2022/03/26 06:19:21;;;;;;;;;19.25;17.50;;;;;17.77;41.90;103304.75;4915933;29;8813;-72
2022/03/26 06:21:46;;;;;;;;;21.00;21.00;;;;;17.77;41.69;103307.38;4915006;29;8801;-72
2022/03/26 06:24:12;;;;;;;;;22.75;21.50;;;;;17.75;41.68;103309.09;4914968;29;8832;-72
2022/03/26 06:26:39;;;;;;;;;26.25;21.00;;;;;17.78;41.81;103306.53;4915628;29;8797;-73
2022/03/26 06:29:07;;;;;;;;;21.75;21.75;;;;;17.76;41.76;103310.91;4914371;29;11657;-72
2022/03/26 06:31:32;;;;;;;;;20.25;19.00;;;;;17.76;41.80;103310.91;4915171;29;10429;-73
2022/03/26 06:33:58;;;;;;;;;21.75;21.50;;;;;17.77;41.74;103306.50;4914593;29;10254;-74
2022/03/26 06:36:24;;;;;;;;;25.25;25.00;;;;;17.77;41.81;103310.03;4916175;29;8835;-72
2022/03/26 06:38:49;;;;;;;;;18.75;17.00;;;;;17.77;41.79;103314.44;4915838;29;10353;-73
2022/03/26 06:41:16;;;;;;;;;18.50;16.50;;;;;17.75;41.55;103309.09;4914978;29;8804;-72
2022/03/26 06:43:42;;;;;;;;;20.50;17.00;;;;;17.78;41.89;103316.22;4915784;29;8812;-72
2022/03/26 06:46:08;;;;;;;;;21.25;20.00;;;;;17.76;42.23;103317.91;4914893;29;10112;-73
2022/03/26 06:48:34;;;;;;;;;23.25;22.25;;;;;17.75;41.58;103314.38;4914759;29;10248;-72
2022/03/26 06:51:01;;;;;;;;;22.50;21.00;;;;;17.76;41.76;103318.81;4914587;29;9566;-72
2022/03/26 06:53:27;;;;;;;;;21.50;21.00;;;;;17.76;41.89;103318.81;4915194;29;11599;-73
2022/03/26 06:55:52;;;;;;;;;17.75;16.75;;;;;17.76;41.71;103318.81;4913949;29;10540;-72
2022/03/26 06:58:18;;;;;;;;;18.75;16.00;;;;;17.79;41.68;103321.56;4914838;29;10494;-72
2022/03/26 07:00:43;;;;;;;;;27.75;24.75;;;;;17.81;41.56;103325.13;4914986;29;8812;-72
2022/03/26 07:03:08;;;;;;;;;27.00;21.50;;;;;17.82;41.54;103323.38;4914042;29;8799;-72
2022/03/26 07:05:34;;;;;;;;;20.50;20.50;;;;;17.82;41.46;103324.28;4914713;29;8939;-73
2022/03/26 07:07:59;;;;;;;;;21.25;20.50;;;;;17.88;41.63;103334.16;4913694;29;8843;-72
2022/03/26 07:10:24;;;;;;;;;20.00;19.75;;;;;17.90;41.50;103331.56;4913879;29;8856;-72
2022/03/26 07:12:49;;;;;;;;;25.75;21.50;;;;;17.91;41.50;103334.25;4918223;29;8840;-73
2022/03/26 07:15:15;;;;;;;;;23.50;23.00;;;;;17.95;41.49;103335.25;4914143;29;8915;-73
2022/03/26 07:17:43;;;;;;;;;24.00;22.25;;;;;17.96;41.47;103334.41;4914066;29;8807;-73
2022/03/26 07:20:10;;;;;;;;;21.25;20.00;;;;;17.96;41.53;103335.28;4914535;29;8812;-72
2022/03/26 07:22:35;;;;;;;;;23.75;21.25;;;;;18.01;41.24;103338.06;4914368;29;10368;-73
2022/03/26 07:25:02;;;;;;;;;20.75;17.50;;;;;18.01;41.48;103344.25;4913304;29;10360;-72
2022/03/26 07:27:34;;;;;;;;;21.25;19.00;;;;;18.04;41.56;103344.34;4914521;29;8824;-72
2022/03/26 07:30:00;;;;;;;;;23.25;22.00;;;;;18.05;41.77;103348.78;4913943;29;10208;-72
2022/03/26 07:32:25;;;;;;;;;24.00;23.50;;;;;18.03;41.71;103352.25;4914235;29;11151;-72
2022/03/26 07:34:51;;;;;;;;;23.50;22.50;;;;;18.04;41.89;103354.91;4914539;29;8788;-72
2022/03/26 07:37:17;;;;;;;;;23.00;22.25;;;;;18.07;41.73;103356.78;4913343;29;8805;-72
2022/03/26 07:39:42;;;;;;;;;27.00;25.00;;;;;18.05;41.54;103355.81;4914182;29;8820;-73
2022/03/26 07:42:07;;;;;;;;;24.25;24.00;;;;;18.07;41.74;103360.28;4913985;29;8934;-72
2022/03/26 07:44:33;;;;;;;;;26.00;24.50;;;;;18.07;41.66;103357.66;4913724;29;8816;-72
2022/03/26 07:46:58;;;;;;;;;23.00;21.25;;;;;18.07;41.89;103364.72;4913704;29;8800;-72
2022/03/26 07:49:24;;;;;;;;;21.50;20.00;;;;;18.07;41.68;103365.59;4913998;29;8840;-72
2022/03/26 07:51:50;;;;;;;;;23.00;22.00;;;;;18.07;41.56;103368.22;4913602;29;8796;-72
2022/03/26 07:54:15;;;;;;;;;18.75;18.00;;;;;18.10;41.75;103367.44;4913925;29;8833;-72
2022/03/26 07:56:40;;;;;;;;;20.75;17.50;;;;;18.10;41.67;103368.34;4913778;29;8800;-72
2022/03/26 07:59:08;;;;;;;;;22.00;18.00;;;;;18.12;41.66;103366.63;4912790;29;8987;-71
2022/03/26 08:01:34;;;;;;;;;25.00;20.25;;;;;18.10;41.78;103375.38;4913999;29;9544;-73
2022/03/26 08:03:59;;;;;;;;;16.75;16.75;;;;;18.11;41.98;103374.53;4913329;29;10568;-72
2022/03/26 08:06:24;;;;;;;;;26.25;23.25;;;;;18.12;41.95;103371.91;4913070;29;8867;-72
2022/03/26 08:08:50;;;;;;;;;17.50;17.50;;;;;18.13;41.95;103372.81;4913548;29;8812;-71
2022/03/26 08:11:16;;;;;;;;;22.00;22.00;;;;;18.15;42.04;103374.66;4913381;29;8823;-72
2022/03/26 08:13:41;;;;;;;;;20.75;20.25;;;;;18.16;41.89;103384.38;4916512;29;8832;-72
2022/03/26 08:16:08;;;;;;;;;20.75;17.75;;;;;18.15;41.68;103382.59;4913610;29;8958;-72
2022/03/26 08:18:33;;;;;;;;;24.00;19.00;;;;;18.18;42.24;103382.66;4913448;29;8804;-73
2022/03/26 08:20:58;;;;;;;;;22.25;21.50;;;;;18.21;42.19;103385.44;4912754;29;10258;-73
2022/03/26 08:23:24;;;;;;;;;23.00;20.50;;;;;18.20;42.21;103388.03;4913440;29;8804;-72
2022/03/26 08:28:33;;;;;;;;;23.00;23.00;;;;;18.20;41.93;103388.94;4912871;29;8780;-72
2022/03/26 08:30:58;;;;;;;;;22.75;19.00;;;;;18.24;42.03;103389.91;4912854;29;10530;-71
2022/03/26 08:33:23;;;;;;;;;23.00;21.00;;;;;18.25;42.33;103392.63;4912872;29;8831;-71
2022/03/26 08:35:48;;;;;;;;;24.25;21.00;;;;;18.26;42.09;103390.84;4913331;29;8915;-72
2022/03/26 08:38:14;;;;;;;;;21.25;18.75;;;;;18.26;42.24;103394.38;4913120;29;8839;-72
2022/03/26 08:40:39;;;;;;;;;22.50;21.25;;;;;18.28;42.53;103389.16;4912652;29;8808;-72
2022/03/26 08:43:06;;;;;;;;;25.50;23.25;;;;;18.28;42.39;103392.72;4913213;29;8796;-72
2022/03/26 08:45:31;;;;;;;;;22.00;18.25;;;;;18.29;42.42;103388.31;4913578;29;9719;-72
2022/03/26 08:47:57;;;;;;;;;22.25;21.25;;;;;18.28;42.47;103389.16;4912512;29;10484;-72
2022/03/26 08:50:23;;;;;;;;;22.75;22.25;;;;;18.30;42.56;103398.94;4913352;29;8812;-74
2022/03/26 08:52:48;;;;;;;;;22.75;21.75;;;;;18.33;42.60;103395.50;4913565;29;8823;-72
2022/03/26 08:55:15;;;;;;;;;22.00;21.75;;;;;18.34;42.41;103397.25;4912107;29;8828;-72
2022/03/26 08:57:41;;;;;;;;;21.75;21.00;;;;;18.37;42.51;103394.72;4913552;29;8792;-72
2022/03/26 09:00:08;;;;;;;;;22.00;16.75;;;;;18.38;42.27;103390.31;4913251;29;10279;-72
2022/03/26 09:02:33;;;;;;;;;23.00;18.50;;;;;18.39;42.43;103397.41;4912130;29;8891;-73
2022/03/26 09:04:58;;;;;;;;;26.25;24.25;;;;;18.39;42.43;103398.31;4913076;29;10194;-72
2022/03/26 09:07:24;;;;;;;;;22.00;21.75;;;;;18.38;42.56;103399.16;4913047;29;9592;-72
2022/03/26 09:09:49;;;;;;;;;18.75;18.00;;;;;18.39;42.63;103402.72;4912140;29;8962;-71
2022/03/26 09:12:15;;;;;;;;;22.75;22.00;;;;;18.42;42.65;103403.69;4915983;29;8825;-73
2022/03/26 09:14:40;;;;;;;;;21.00;20.00;;;;;18.42;42.72;103408.06;4913552;29;8895;-72
2022/03/26 09:17:05;;;;;;;;;21.00;18.25;;;;;18.42;42.69;103402.78;4911949;29;8965;-73
2022/03/26 09:19:31;;;;;;;;;20.00;18.25;;;;;18.43;42.76;103405.50;4913338;29;9177;-71
2022/03/26 09:21:56;;;;;;;;;19.75;19.75;;;;;18.46;42.73;103412.63;4912729;29;8816;-72
2022/03/26 09:24:23;;;;;;;;;22.00;19.50;;;;;18.43;42.67;103400.22;4912497;29;8871;-72
2022/03/26 09:26:48;;;;;;;;;21.50;17.50;;;;;18.48;42.79;103408.28;4913173;29;8819;-72
2022/03/26 09:29:14;;;;;;;;;20.75;17.75;;;;;18.47;42.96;103403.84;4912702;29;10292;-72
2022/03/26 09:31:39;;;;;;;;;17.75;17.75;;;;;18.48;42.79;103400.34;4914418;29;8800;-72
2022/03/26 09:34:04;;;;;;;;;22.50;19.50;;;;;18.50;42.74;103403.91;4916421;29;8879;-71
2022/03/26 09:36:29;;;;;;;;;18.75;18.50;;;;;18.52;42.62;103407.56;4916250;29;8823;-72
2022/03/26 09:38:55;;;;;;;;;16.00;16.00;;;;;18.53;42.88;103409.34;4914987;29;8839;-71
2022/03/26 09:41:22;;;;;;;;;19.25;17.75;;;;;18.51;42.90;103411.00;4916436;29;8808;-71
2022/03/26 09:43:48;;;;;;;;;18.25;16.75;;;;;18.52;43.04;103415.50;4915642;29;8801;-72
2022/03/26 09:46:17;;;;;;;;;20.50;19.75;;;;;18.53;43.19;103404.03;4916044;29;10274;-72
2022/03/26 09:48:43;;;;;;;;;15.50;15.00;;;;;18.55;43.06;103410.28;4916245;29;11631;-71
2022/03/26 09:51:10;;;;;;;;;16.50;16.50;;;;;18.57;43.13;103413.88;4915091;29;10021;-73
2022/03/26 09:53:35;;;;;;;;;21.00;21.00;;;;;18.61;42.99;103416.66;4916119;29;10072;-72
2022/03/26 09:56:01;;;;;;;;;20.25;16.75;;;;;18.61;43.36;103418.41;4914650;29;10221;-71
2022/03/26 09:58:26;;;;;;;;;16.00;15.75;;;;;18.63;43.08;103414.94;4914226;29;9683;-72
2022/03/26 10:00:55;;;;;;;;;15.50;14.50;;;;;18.64;43.39;103413.19;4915652;29;8848;-73
2022/03/26 10:03:20;;;;;;;;;15.75;15.75;;;;;18.64;43.34;103410.53;4915208;29;8895;-72
2022/03/26 10:05:46;;;;;;;;;16.50;14.50;;;;;18.64;43.33;103415.84;4913570;29;10065;-72
2022/03/26 10:08:22;;;;;;;;;22.75;18.25;;;;;18.65;43.36;103415.00;4914885;29;8876;-72
2022/03/26 10:10:48;;;;;;;;;18.75;17.50;;;;;18.66;43.58;103415.06;4915100;29;9010;-72
2022/03/26 10:13:34;;;;;;;;;15.25;14.75;;;;;18.66;43.58;103411.50;4920031;29;10206;-72
2022/03/26 10:16:10;;;;;;;;;15.25;15.25;;;;;18.67;43.46;103414.19;4914110;29;10119;-72
2022/03/26 10:18:41;;;;;;;;;15.75;15.75;;;;;18.68;43.80;103407.13;4914780;29;10191;-71
2022/03/26 10:21:09;;;;;;;;;20.00;18.50;;;;;18.71;43.63;103407.22;4914219;29;10873;-73
2022/03/26 10:23:35;;;;;;;;;19.75;16.25;;;;;18.70;43.58;103400.16;4914663;29;10406;-73
2022/03/26 10:26:24;;;;;;;;;20.00;17.75;;;;;18.73;43.77;103402.88;4913305;29;10182;-73
2022/03/26 10:28:57;;;;;;;;;20.00;19.50;;;;;18.73;43.47;103409.09;4914420;29;10034;-72
2022/03/26 10:34:20;;;;;;;;;18.50;16.75;;;;;18.75;43.75;103391.47;4912772;29;10024;-72
2022/03/26 10:37:01;;;;;;;;;19.25;17.00;;;;;18.76;43.88;103389.72;4914986;29;9929;-72
2022/03/26 10:39:30;;;;;;;;;16.50;16.00;;;;;18.78;44.00;103391.56;4926605;29;10003;-79
2022/03/26 10:41:59;;;;;;;;;20.00;18.00;;;;;18.87;45.07;103384.75;4933286;29;10121;-80
2022/03/26 10:44:27;;;;;;;;;24.25;21.75;;;;;18.96;44.91;103388.56;4934539;29;10163;-79
2022/03/26 10:46:58;;;;;;;;;22.25;16.25;;;;;19.06;47.78;103390.59;4934308;29;11114;-77
2022/03/26 10:49:38;;;;;;;;;21.50;20.50;;;;;19.16;49.35;103382.03;4934494;29;10347;-73
2022/03/26 10:52:15;;;;;;;;;18.25;16.75;;;;;19.26;50.19;103378.78;4933711;29;10311;-76
2022/03/26 10:54:41;;;;;;;;;18.75;17.25;;;;;19.39;51.91;103384.38;4933740;29;10324;-71
2022/03/26 10:57:08;;;;;;;;;23.00;20.75;;;;;19.52;49.32;103379.50;4933880;29;10117;-77
2022/03/26 10:59:33;;;;;;;;;22.00;20.25;;;;;19.62;54.59;103377.94;4934154;29;10253;-72
2022/03/26 11:01:59;;;;;;;;;26.25;23.50;;;;;19.65;55.43;103372.72;4933120;29;10488;-71
2022/03/26 11:04:35;;;;;;;;;18.75;18.25;;;;;19.59;54.92;103370.84;4934298;29;8793;-72
2022/03/26 11:07:01;;;;;;;;;18.50;16.50;;;;;19.58;57.14;103370.78;4933384;29;8849;-71
2022/03/26 11:09:27;;;;;;;;;14.25;14.25;;;;;19.66;55.73;103371.88;4933133;29;10277;-71
2022/03/26 11:11:53;;;;;;;;;23.00;21.00;;;;;19.81;55.04;103371.34;4932199;29;11586;-72
2022/03/26 11:14:22;;;;;;;;;23.00;19.00;;;;;19.83;56.49;103367.00;4932190;29;8928;-72
2022/03/26 11:17:20;;;;;;;;;27.25;25.00;;;;;19.76;57.50;103364.16;4933153;29;8774;-72
2022/03/26 11:20:07;;;;;;;;;27.25;23.25;;;;;19.74;57.16;103375.59;4933606;29;10425;-71